Time;durP1;ratioP1;P1;durP2;ratioP2;P2;SDS_P1;SDS_P2;PMS_P1;PMS_P2;Temp;Humidity;BMP_temperature;BMP_pressure;BME280_temperature;BME280_humidity;BME280_pressure;Samples;Min_cycle;Max_cycle;Signal;HPM_P1;HPM_P2
2022/02/19 00:01:03;;;;;;;8.20;3.63;;;9.20;99.90;;;;;;5068933;28;20209;-68
2022/02/19 00:03:31;;;;;;;7.47;3.67;;;9.40;99.90;;;;;;5062777;28;20260;-66
2022/02/19 00:05:58;;;;;;;7.13;3.53;;;9.40;99.90;;;;;;5075124;28;20213;-65
2022/02/19 00:08:25;;;;;;;6.50;3.43;;;9.50;99.90;;;;;;5086883;28;20292;-65
2022/02/19 00:10:53;;;;;;;10.80;4.30;;;9.50;99.90;;;;;;5074726;28;20232;-66
2022/02/19 00:13:20;;;;;;;9.67;3.70;;;9.50;99.90;;;;;;5075297;28;20201;-67
2022/02/19 00:15:47;;;;;;;7.77;4.23;;;9.60;99.90;;;;;;5071009;28;20752;-66
2022/02/19 00:18:14;;;;;;;10.83;3.90;;;9.60;99.90;;;;;;5073978;28;20256;-67
2022/02/19 00:20:41;;;;;;;9.37;3.57;;;9.70;99.90;;;;;;5075073;28;20588;-66
2022/02/19 00:23:09;;;;;;;8.90;3.77;;;9.70;99.90;;;;;;5074239;28;20251;-66
2022/02/19 00:25:36;;;;;;;9.97;3.57;;;9.70;99.90;;;;;;5069593;28;20260;-67
2022/02/19 00:28:04;;;;;;;10.87;3.73;;;9.70;99.90;;;;;;5073573;28;20671;-67
2022/02/19 00:30:31;;;;;;;5.37;3.10;;;9.80;99.90;;;;;;5079533;28;20619;-67
2022/02/19 00:32:58;;;;;;;8.80;3.10;;;9.80;99.90;;;;;;5085590;28;20258;-67
2022/02/19 00:35:25;;;;;;;9.70;3.70;;;9.80;99.90;;;;;;5071700;28;20194;-67
2022/02/19 00:37:52;;;;;;;10.60;3.33;;;9.90;99.90;;;;;;5072762;28;20636;-66
2022/02/19 00:40:19;;;;;;;6.10;3.07;;;9.90;99.90;;;;;;5074623;28;20651;-66
2022/02/19 00:42:46;;;;;;;7.90;2.93;;;9.90;99.90;;;;;;5074903;28;20260;-67
2022/02/19 00:45:14;;;;;;;6.43;3.00;;;9.90;99.90;;;;;;5066528;28;20213;-66
2022/02/19 00:47:41;;;;;;;7.83;3.10;;;9.90;99.90;;;;;;5065530;28;20211;-66
2022/02/19 00:50:08;;;;;;;4.90;2.37;;;10.10;99.90;;;;;;5065241;28;20232;-66
2022/02/19 00:52:35;;;;;;;6.87;2.57;;;10.00;99.90;;;;;;5074677;28;20201;-66
2022/02/19 00:55:02;;;;;;;4.47;2.70;;;10.10;99.90;;;;;;5073661;28;20209;-66
2022/02/19 00:57:29;;;;;;;2.93;1.90;;;10.20;99.90;;;;;;5072403;28;20217;-66
2022/02/19 00:59:56;;;;;;;2.30;1.40;;;10.20;99.90;;;;;;5070276;28;20205;-66
2022/02/19 01:02:24;;;;;;;2.03;1.40;;;10.10;99.90;;;;;;5073232;28;20328;-66
2022/02/19 01:04:51;;;;;;;4.70;1.23;;;10.10;99.90;;;;;;5072186;28;20654;-66
2022/02/19 01:07:18;;;;;;;3.30;0.77;;;10.00;99.90;;;;;;5079341;28;20201;-66
2022/02/19 01:09:45;;;;;;;2.13;0.97;;;9.90;99.90;;;;;;5080452;28;20231;-67
2022/02/19 01:12:12;;;;;;;1.70;0.50;;;9.80;99.90;;;;;;5083756;28;20226;-65
2022/02/19 01:14:39;;;;;;;3.60;0.90;;;9.80;99.90;;;;;;5075851;28;20306;-67
2022/02/19 01:17:08;;;;;;;1.53;0.70;;;9.70;99.90;;;;;;5069897;28;20237;-65
2022/02/19 01:19:36;;;;;;;5.17;3.90;;;9.70;99.90;;;;;;5070340;28;20201;-66
2022/02/19 01:22:05;;;;;;;3.33;0.90;;;9.70;99.90;;;;;;5080235;28;20225;-66
2022/02/19 01:24:32;;;;;;;2.27;1.00;;;9.70;99.90;;;;;;5066163;28;20229;-65
2022/02/19 01:26:59;;;;;;;2.20;0.97;;;9.70;99.90;;;;;;5073569;28;20301;-66
2022/02/19 01:29:26;;;;;;;3.10;0.60;;;9.70;99.90;;;;;;5088816;28;20291;-66
2022/02/19 01:31:53;;;;;;;2.23;0.90;;;9.70;99.90;;;;;;5077333;28;20278;-65
2022/02/19 01:34:22;;;;;;;1.70;0.70;;;9.70;99.90;;;;;;5074210;28;20194;-67
2022/02/19 01:36:51;;;;;;;3.00;1.00;;;9.70;99.90;;;;;;5073610;28;20197;-65
2022/02/19 01:39:18;;;;;;;2.37;0.80;;;9.70;99.90;;;;;;5074463;28;20262;-66
2022/02/19 01:41:45;;;;;;;3.30;0.57;;;9.70;99.90;;;;;;5074675;28;20208;-67
2022/02/19 01:44:14;;;;;;;2.73;0.60;;;9.70;99.90;;;;;;5076970;28;20716;-66
2022/02/19 01:46:41;;;;;;;2.80;1.03;;;9.60;99.90;;;;;;5070351;28;20248;-65
2022/02/19 01:49:08;;;;;;;5.83;1.10;;;9.60;99.90;;;;;;5073573;28;20209;-65
2022/02/19 01:51:37;;;;;;;4.10;1.37;;;9.60;99.90;;;;;;5065853;28;20639;-66
2022/02/19 01:54:07;;;;;;;5.93;2.47;;;9.60;99.90;;;;;;5074859;28;20236;-66
2022/02/19 01:56:35;;;;;;;2.53;1.50;;;9.40;99.90;;;;;;5077472;28;20236;-66
2022/02/19 01:59:02;;;;;;;1.33;0.80;;;9.40;99.90;;;;;;5076861;28;20245;-66
2022/02/19 02:01:29;;;;;;;2.23;0.70;;;9.40;99.90;;;;;;5070553;28;20205;-69
2022/02/19 02:03:56;;;;;;;1.90;0.73;;;9.40;99.90;;;;;;5070107;28;20756;-69
2022/02/19 02:06:24;;;;;;;3.73;2.27;;;9.40;99.10;;;;;;5071621;28;20205;-67
2022/02/19 02:08:52;;;;;;;2.30;0.97;;;9.40;98.40;;;;;;5073524;28;20209;-69
2022/02/19 02:11:20;;;;;;;2.23;0.77;;;9.40;97.60;;;;;;5068524;28;20217;-69
2022/02/19 02:13:47;;;;;;;1.47;0.70;;;9.40;96.60;;;;;;5071670;28;20284;-68
2022/02/19 02:16:14;;;;;;;1.60;0.63;;;9.30;95.80;;;;;;5071656;28;20287;-68
2022/02/19 02:18:43;;;;;;;1.63;0.67;;;9.30;95.40;;;;;;5069357;28;20638;-69
2022/02/19 02:21:10;;;;;;;2.13;0.77;;;9.10;94.70;;;;;;5063270;28;20328;-68
2022/02/19 02:23:38;;;;;;;1.07;0.70;;;9.30;94.40;;;;;;5064399;28;20217;-68
2022/02/19 02:26:06;;;;;;;1.70;0.80;;;9.30;93.80;;;;;;5070085;28;20201;-69
2022/02/19 02:28:32;;;;;;;3.43;0.90;;;9.30;93.40;;;;;;5073119;28;20300;-68
2022/02/19 02:30:59;;;;;;;1.77;0.60;;;9.20;93.00;;;;;;5077324;28;20236;-68
2022/02/19 02:33:26;;;;;;;2.17;0.83;;;9.20;92.50;;;;;;5070184;28;20262;-67
2022/02/19 02:35:53;;;;;;;0.87;0.70;;;9.10;91.70;;;;;;5074606;28;20723;-68
2022/02/19 02:38:20;;;;;;;3.07;0.80;;;9.20;90.80;;;;;;5071406;28;20228;-68
2022/02/19 02:40:48;;;;;;;2.97;0.63;;;9.10;90.50;;;;;;5068845;28;20312;-68
2022/02/19 02:43:15;;;;;;;1.83;0.70;;;9.10;90.20;;;;;;5071621;28;20225;-69
2022/02/19 02:45:44;;;;;;;5.33;0.70;;;9.10;90.00;;;;;;5071236;28;20379;-67
2022/02/19 02:48:11;;;;;;;3.57;0.70;;;9.10;90.00;;;;;;5071602;28;20201;-68
2022/02/19 02:50:38;;;;;;;3.23;0.90;;;9.10;89.90;;;;;;5066487;28;20202;-69
2022/02/19 02:53:05;;;;;;;1.67;0.90;;;9.10;89.90;;;;;;5071246;28;20232;-69
2022/02/19 02:55:32;;;;;;;2.10;1.00;;;9.00;89.80;;;;;;5067662;28;20209;-69
2022/02/19 02:58:01;;;;;;;1.90;1.03;;;9.00;89.90;;;;;;5068370;28;20209;-69
2022/02/19 03:00:28;;;;;;;1.00;0.67;;;9.00;89.90;;;;;;5069573;28;20296;-69
2022/02/19 03:02:54;;;;;;;3.43;0.93;;;9.00;89.90;;;;;;5067525;28;20277;-70
2022/02/19 03:05:22;;;;;;;2.07;0.83;;;9.00;90.00;;;;;;5071376;28;20685;-69
2022/02/19 03:07:49;;;;;;;2.73;0.60;;;9.00;89.70;;;;;;5070475;28;20232;-70
2022/02/19 03:10:17;;;;;;;1.97;0.80;;;9.00;89.40;;;;;;5071033;28;20233;-69
2022/02/19 03:12:44;;;;;;;3.57;0.90;;;9.00;89.30;;;;;;5078467;28;20221;-70
2022/02/19 03:15:18;;;;;;;4.13;0.70;;;8.90;88.90;;;;;;5065861;28;20221;-69
2022/02/19 03:17:45;;;;;;;1.73;0.73;;;8.90;88.70;;;;;;5066881;28;20201;-69
2022/02/19 03:20:15;;;;;;;4.57;1.03;;;8.90;88.20;;;;;;5073902;28;20641;-69
2022/02/19 03:22:44;;;;;;;4.23;0.93;;;8.90;88.10;;;;;;5075345;28;20650;-69
2022/02/19 03:25:11;;;;;;;2.80;1.10;;;8.90;87.60;;;;;;5067133;28;20229;-68
2022/02/19 03:27:38;;;;;;;3.57;1.00;;;8.90;87.30;;;;;;5087489;28;20248;-69
2022/02/19 03:30:07;;;;;;;2.90;0.73;;;8.90;87.60;;;;;;5078090;28;20213;-69
2022/02/19 03:32:35;;;;;;;2.37;0.60;;;8.90;87.00;;;;;;5080071;28;20287;-69
2022/02/19 03:35:02;;;;;;;4.13;0.80;;;8.90;87.10;;;;;;5081141;28;20316;-69
2022/02/19 03:37:32;;;;;;;3.47;0.93;;;8.80;86.90;;;;;;5074531;28;20634;-68
2022/02/19 03:39:59;;;;;;;1.53;0.83;;;8.90;86.90;;;;;;5073354;28;20239;-69
2022/02/19 03:42:27;;;;;;;1.20;0.57;;;8.80;86.80;;;;;;5075425;28;20713;-68
2022/02/19 03:44:54;;;;;;;2.53;0.90;;;8.80;86.40;;;;;;5066790;28;20226;-69
2022/02/19 03:47:21;;;;;;;4.30;0.90;;;8.80;86.10;;;;;;5067083;28;20212;-69
2022/02/19 03:49:49;;;;;;;3.10;0.90;;;8.80;85.90;;;;;;5073373;28;20212;-69
2022/02/19 03:52:16;;;;;;;5.47;0.90;;;8.80;85.70;;;;;;5076341;28;20200;-69
2022/02/19 03:54:43;;;;;;;5.33;0.90;;;8.80;84.90;;;;;;5079821;28;20237;-69
2022/02/19 03:57:10;;;;;;;1.70;0.70;;;8.80;84.80;;;;;;5085001;28;20509;-69
2022/02/19 03:59:36;;;;;;;2.57;0.73;;;8.70;84.10;;;;;;5079654;28;20231;-69
2022/02/19 04:02:04;;;;;;;3.40;0.70;;;8.70;83.30;;;;;;5082842;28;20574;-69
2022/02/19 04:04:31;;;;;;;0.47;0.40;;;8.70;81.00;;;;;;5079836;28;20796;-70
2022/02/19 04:06:59;;;;;;;2.20;0.70;;;8.70;78.90;;;;;;5081556;28;20213;-69
2022/02/19 04:09:26;;;;;;;1.03;0.60;;;8.70;78.50;;;;;;5083703;28;20291;-69
2022/02/19 04:11:53;;;;;;;2.03;0.70;;;8.60;77.80;;;;;;5077860;28;20206;-69
2022/02/19 04:14:20;;;;;;;2.20;0.50;;;8.60;77.80;;;;;;5083857;28;20197;-69
2022/02/19 04:16:47;;;;;;;3.00;0.93;;;8.60;77.80;;;;;;5076427;28;20205;-69
2022/02/19 04:19:14;;;;;;;1.87;0.60;;;8.60;78.30;;;;;;5077542;28;20205;-68
2022/02/19 04:21:41;;;;;;;4.93;0.80;;;8.50;78.40;;;;;;5074002;28;20668;-68
2022/02/19 04:24:09;;;;;;;4.83;0.90;;;8.50;78.70;;;;;;5077879;28;20315;-69
2022/02/19 04:26:36;;;;;;;2.50;0.67;;;8.40;79.30;;;;;;5071350;28;20284;-69
2022/02/19 04:29:03;;;;;;;2.80;0.90;;;8.40;79.70;;;;;;5082360;28;20619;-68
2022/02/19 04:31:30;;;;;;;4.37;0.80;;;8.40;80.30;;;;;;5073998;28;20213;-68
2022/02/19 04:33:57;;;;;;;1.37;0.83;;;8.40;80.70;;;;;;5087557;28;20650;-68
2022/02/19 04:36:23;;;;;;;3.47;1.10;;;8.30;81.00;;;;;;5073037;28;20289;-69
2022/02/19 04:38:50;;;;;;;2.07;0.90;;;8.30;81.60;;;;;;5080338;28;20776;-69
2022/02/19 04:41:19;;;;;;;2.50;0.73;;;8.20;82.00;;;;;;5065031;28;20233;-68
2022/02/19 04:43:45;;;;;;;4.77;0.97;;;8.30;82.70;;;;;;5070780;28;20321;-69
2022/02/19 04:46:12;;;;;;;4.23;0.90;;;8.20;83.20;;;;;;5073624;28;20198;-68
2022/02/19 04:48:39;;;;;;;3.03;1.00;;;8.20;83.90;;;;;;5073193;28;20214;-68
2022/02/19 04:51:06;;;;;;;1.87;0.67;;;8.20;84.30;;;;;;5069645;28;20735;-68
2022/02/19 04:53:33;;;;;;;3.10;0.77;;;8.20;85.20;;;;;;5072955;28;20219;-68
2022/02/19 04:56:00;;;;;;;4.07;1.10;;;8.20;85.70;;;;;;5074380;28;20215;-69
2022/02/19 04:58:28;;;;;;;1.50;0.73;;;8.20;86.10;;;;;;5074404;28;20292;-69
2022/02/19 05:00:55;;;;;;;3.90;1.00;;;8.20;85.40;;;;;;5072759;28;20287;-68
2022/02/19 05:03:22;;;;;;;2.83;1.13;;;8.20;84.40;;;;;;5072418;28;20213;-69
2022/02/19 05:05:49;;;;;;;4.60;1.40;;;8.20;84.20;;;;;;5073795;28;20213;-68
2022/02/19 05:08:16;;;;;;;5.00;1.67;;;8.20;83.90;;;;;;5083788;28;20229;-68
2022/02/19 05:10:42;;;;;;;1.90;0.70;;;8.30;83.60;;;;;;5070332;28;20296;-68
2022/02/19 05:13:09;;;;;;;3.03;0.87;;;8.20;82.90;;;;;;5072320;28;20219;-68
2022/02/19 05:15:38;;;;;;;2.23;1.27;;;8.20;82.20;;;;;;5072666;28;20215;-68
2022/02/19 05:18:05;;;;;;;2.43;0.83;;;8.20;81.80;;;;;;5072241;28;20230;-68
2022/02/19 05:20:33;;;;;;;2.03;0.80;;;8.20;80.80;;;;;;5069491;28;20248;-68
2022/02/19 05:23:00;;;;;;;3.33;0.90;;;8.20;80.20;;;;;;5077690;28;20229;-68
2022/02/19 05:25:27;;;;;;;5.20;1.03;;;8.30;79.20;;;;;;5071984;28;20229;-68
2022/02/19 05:27:53;;;;;;;2.47;0.90;;;8.20;78.80;;;;;;5063407;28;20251;-67
2022/02/19 05:30:20;;;;;;;4.10;1.50;;;8.30;78.40;;;;;;5072587;28;20205;-67
2022/02/19 05:32:49;;;;;;;6.40;1.17;;;8.20;78.30;;;;;;5072679;28;20208;-68
2022/02/19 05:35:15;;;;;;;2.23;0.73;;;8.20;78.40;;;;;;5075677;28;20291;-68
2022/02/19 05:37:42;;;;;;;2.60;0.97;;;8.20;78.10;;;;;;5074944;28;20201;-68
2022/02/19 05:40:10;;;;;;;2.73;1.10;;;8.20;78.40;;;;;;5069729;28;20251;-68
2022/02/19 05:42:37;;;;;;;5.67;1.00;;;8.20;78.90;;;;;;5073284;28;20211;-68
2022/02/19 05:45:04;;;;;;;2.63;1.07;;;8.20;78.80;;;;;;5075725;28;20737;-69
2022/02/19 05:47:31;;;;;;;2.37;0.87;;;8.20;78.30;;;;;;5075123;28;20201;-68
2022/02/19 05:49:59;;;;;;;6.30;1.00;;;8.10;77.50;;;;;;5071188;28;20213;-69
2022/02/19 05:52:27;;;;;;;6.27;0.97;;;8.20;76.60;;;;;;5077795;28;20276;-68
2022/02/19 05:54:54;;;;;;;3.60;1.27;;;8.20;75.20;;;;;;5070001;28;20380;-69
2022/02/19 05:57:22;;;;;;;3.73;0.70;;;8.10;73.90;;;;;;5077691;28;20729;-68
2022/02/19 05:59:49;;;;;;;5.83;1.33;;;8.10;73.60;;;;;;5074880;28;20205;-68
2022/02/19 06:02:17;;;;;;;5.53;0.80;;;8.10;73.30;;;;;;5076046;28;20681;-69
2022/02/19 06:04:44;;;;;;;5.20;1.00;;;8.10;73.00;;;;;;5071942;28;20220;-69
2022/02/19 06:07:12;;;;;;;5.50;1.10;;;8.00;72.60;;;;;;5072033;28;20205;-69
2022/02/19 06:09:39;;;;;;;4.20;1.20;;;8.00;72.40;;;;;;5074692;28;20236;-68
2022/02/19 06:12:08;;;;;;;1.77;0.90;;;8.00;71.70;;;;;;5074916;28;20232;-68
2022/02/19 06:14:35;;;;;;;3.97;0.70;;;8.00;71.30;;;;;;5072084;28;20281;-68
2022/02/19 06:17:03;;;;;;;3.27;1.40;;;8.00;71.00;;;;;;5071545;28;20520;-67
2022/02/19 06:19:30;;;;;;;3.37;1.00;;;8.00;70.60;;;;;;5071485;28;20227;-69
2022/02/19 06:21:57;;;;;;;3.90;1.30;;;8.00;70.00;;;;;;5068838;28;20229;-68
2022/02/19 06:24:25;;;;;;;3.37;1.30;;;7.90;69.60;;;;;;5077665;28;20304;-69
2022/02/19 06:26:52;;;;;;;1.90;0.80;;;7.90;69.60;;;;;;5064985;28;20339;-68
2022/02/19 06:29:19;;;;;;;4.50;1.20;;;7.90;69.60;;;;;;5072676;28;20559;-68
2022/02/19 06:31:46;;;;;;;4.67;1.00;;;7.90;68.90;;;;;;5069889;28;20224;-68
2022/02/19 06:34:13;;;;;;;3.70;1.00;;;7.90;68.90;;;;;;5084848;28;20233;-69
2022/02/19 06:36:40;;;;;;;4.43;0.90;;;7.90;68.60;;;;;;5072392;28;20284;-69
2022/02/19 06:39:07;;;;;;;2.60;0.80;;;7.90;68.60;;;;;;5071995;28;20666;-69
2022/02/19 06:41:35;;;;;;;4.20;1.20;;;7.90;68.60;;;;;;5068020;28;20248;-68
2022/02/19 06:44:02;;;;;;;2.10;0.97;;;7.90;68.60;;;;;;5071148;28;20232;-69
2022/02/19 06:46:29;;;;;;;3.87;1.20;;;7.90;68.60;;;;;;5071258;28;20216;-70
2022/02/19 06:48:56;;;;;;;4.33;1.13;;;7.80;68.50;;;;;;5072004;28;20224;-68
2022/02/19 06:51:25;;;;;;;3.30;0.97;;;7.80;68.50;;;;;;5070925;28;20237;-69
2022/02/19 06:53:56;;;;;;;1.57;0.83;;;7.90;68.90;;;;;;5075484;28;20270;-69
2022/02/19 06:56:23;;;;;;;2.90;0.97;;;7.80;68.50;;;;;;5076356;28;20205;-69
2022/02/19 06:58:52;;;;;;;1.57;0.70;;;7.90;68.40;;;;;;5072883;28;20249;-69
2022/02/19 07:01:20;;;;;;;4.03;1.20;;;7.90;68.00;;;;;;5069232;28;20206;-70
2022/02/19 07:03:46;;;;;;;4.53;1.37;;;7.90;67.70;;;;;;5082934;28;20204;-71
2022/02/19 07:06:13;;;;;;;2.67;1.10;;;7.90;67.50;;;;;;5088985;28;20227;-72
2022/02/19 07:08:40;;;;;;;5.13;1.00;;;7.90;67.00;;;;;;5077385;28;20237;-72
2022/02/19 07:11:07;;;;;;;3.30;1.00;;;7.90;67.10;;;;;;5075346;28;20288;-72
2022/02/19 07:13:34;;;;;;;7.43;1.50;;;8.00;67.40;;;;;;5079674;28;20213;-70
2022/02/19 07:16:03;;;;;;;2.83;0.80;;;8.00;67.40;;;;;;5079887;28;20284;-71
2022/02/19 07:18:33;;;;;;;2.30;1.03;;;8.00;67.40;;;;;;5070068;28;20231;-72
2022/02/19 07:21:00;;;;;;;3.30;1.00;;;8.00;67.30;;;;;;5073534;28;20237;-74
2022/02/19 07:23:27;;;;;;;4.97;1.10;;;8.00;67.00;;;;;;5081127;28;20205;-73
2022/02/19 07:25:54;;;;;;;7.30;1.17;;;8.00;66.20;;;;;;5076364;28;20690;-72
2022/02/19 07:28:21;;;;;;;1.77;1.10;;;8.10;66.00;;;;;;5088132;28;20209;-74
2022/02/19 07:30:48;;;;;;;3.73;1.03;;;8.10;65.60;;;;;;5063202;28;20201;-73
2022/02/19 07:33:16;;;;;;;4.60;0.90;;;8.10;65.30;;;;;;5079533;28;20205;-71
2022/02/19 07:35:43;;;;;;;4.70;1.00;;;8.10;65.60;;;;;;5070564;28;20202;-70
2022/02/19 07:38:10;;;;;;;4.07;1.20;;;8.10;65.60;;;;;;5075088;28;20213;-69
2022/02/19 07:40:37;;;;;;;6.27;1.23;;;8.10;65.80;;;;;;5074446;28;20790;-71
2022/02/19 07:43:04;;;;;;;3.27;1.03;;;8.10;66.00;;;;;;5074741;28;20308;-71
2022/02/19 07:45:31;;;;;;;2.37;1.27;;;8.10;66.20;;;;;;5074772;28;20221;-71
2022/02/19 07:47:58;;;;;;;5.70;0.90;;;8.10;66.00;;;;;;5068804;28;20197;-70
2022/02/19 07:58:38;;;;;;;1.67;0.70;;;8.10;66.20;;;;;;5076801;28;20272;-72
2022/02/19 08:01:08;;;;;;;3.80;1.10;;;8.10;66.40;;;;;;5072434;28;20284;-71
2022/02/19 08:03:35;;;;;;;1.10;0.70;;;8.10;66.50;;;;;;5080011;28;20216;-72
2022/02/19 08:06:05;;;;;;;3.77;0.93;;;8.10;66.60;;;;;;5073491;28;20224;-71
2022/02/19 08:08:33;;;;;;;3.77;1.10;;;8.20;66.70;;;;;;5076251;28;20668;-72
2022/02/19 08:11:01;;;;;;;1.83;0.63;;;8.20;66.90;;;;;;5066505;28;20229;-70
2022/02/19 08:13:27;;;;;;;4.50;0.70;;;8.20;66.90;;;;;;5079751;28;20251;-71
2022/02/19 08:15:55;;;;;;;3.23;0.90;;;8.20;66.70;;;;;;5071303;28;20281;-71
2022/02/19 08:18:23;;;;;;;3.63;1.30;;;8.30;67.00;;;;;;5092118;28;20208;-70
2022/02/19 08:20:51;;;;;;;4.10;1.07;;;8.30;66.60;;;;;;5068400;28;20312;-71
2022/02/19 08:23:21;;;;;;;2.63;1.07;;;8.50;67.30;;;;;;5080311;28;20655;-72
2022/02/19 08:25:49;;;;;;;2.00;0.93;;;8.60;66.40;;;;;;5077086;28;20228;-71
2022/02/19 08:28:16;;;;;;;2.93;1.00;;;8.70;65.90;;;;;;5090258;28;20233;-71
2022/02/19 08:30:45;;;;;;;10.23;3.27;;;8.90;66.00;;;;;;5067520;28;20625;-69
2022/02/19 08:33:13;;;;;;;5.33;2.20;;;9.00;65.60;;;;;;5087032;28;20292;-69
2022/02/19 08:35:41;;;;;;;4.20;1.60;;;9.00;65.80;;;;;;5070174;28;20234;-71
2022/02/19 08:38:10;;;;;;;6.87;1.73;;;9.00;65.70;;;;;;5065703;28;20209;-68
2022/02/19 08:40:39;;;;;;;3.73;1.30;;;9.20;66.10;;;;;;5075027;28;20239;-71
2022/02/19 08:43:06;;;;;;;3.27;1.00;;;9.30;65.80;;;;;;5065981;28;20245;-70
2022/02/19 08:45:33;;;;;;;3.97;1.30;;;9.30;65.40;;;;;;5064153;28;20221;-71
2022/02/19 08:48:04;;;;;;;3.50;1.27;;;9.50;65.00;;;;;;5078514;28;20216;-70
2022/02/19 08:50:31;;;;;;;4.00;1.20;;;9.60;65.00;;;;;;5075013;28;20209;-68
2022/02/19 08:52:59;;;;;;;4.63;1.20;;;9.90;64.60;;;;;;5090807;28;20718;-67
2022/02/19 08:55:26;;;;;;;4.97;0.87;;;10.10;63.00;;;;;;5083086;28;20269;-70
2022/02/19 08:57:55;;;;;;;8.63;1.77;;;10.30;62.40;;;;;;5067974;28;20292;-69
2022/02/19 09:00:22;;;;;;;5.50;2.33;;;10.30;61.60;;;;;;5072752;28;20251;-70
2022/02/19 09:02:49;;;;;;;4.70;1.67;;;10.30;61.20;;;;;;5073698;28;20201;-69
2022/02/19 09:05:18;;;;;;;4.53;1.77;;;10.40;61.20;;;;;;5068649;28;20232;-71
2022/02/19 09:07:45;;;;;;;2.57;1.47;;;10.50;61.30;;;;;;5067290;28;20640;-70
2022/02/19 09:10:14;;;;;;;7.30;3.07;;;10.60;61.20;;;;;;5069413;28;20233;-71
2022/02/19 09:12:46;;;;;;;6.33;2.87;;;10.80;63.00;;;;;;5073720;28;20220;-72
2022/02/19 09:15:15;;;;;;;5.17;2.00;;;11.30;62.40;;;;;;5073481;28;20201;-71
2022/02/19 09:17:42;;;;;;;4.20;1.60;;;12.40;64.10;;;;;;5060793;28;20212;-72
2022/02/19 09:20:10;;;;;;;4.13;1.33;;;14.50;60.30;;;;;;5073570;28;20236;-70
2022/02/19 09:22:38;;;;;;;6.50;1.80;;;16.60;54.40;;;;;;5072675;28;20278;-71
2022/02/19 09:25:06;;;;;;;5.93;1.37;;;18.40;48.80;;;;;;5072682;28;20228;-70
2022/02/19 09:27:34;;;;;;;3.08;1.17;;;19.40;46.10;;;;;;5071327;28;20297;-70
2022/02/19 09:30:01;;;;;;;5.20;1.48;;;20.80;43.20;;;;;;5075876;28;20205;-70
2022/02/19 09:32:29;;;;;;;2.53;1.48;;;21.80;40.50;;;;;;5059475;28;20208;-70
2022/02/19 09:34:56;;;;;;;5.00;1.40;;;22.70;39.20;;;;;;5072229;28;20201;-70
2022/02/19 09:37:27;;;;;;;5.43;1.25;;;22.50;38.00;;;;;;5072566;28;20247;-70
2022/02/19 09:39:55;;;;;;;4.75;1.50;;;21.70;36.50;;;;;;5070927;28;20236;-72
2022/02/19 09:42:23;;;;;;;2.90;1.20;;;21.00;37.00;;;;;;5076532;28;20204;-68
2022/02/19 09:44:50;;;;;;;3.53;1.10;;;19.80;37.40;;;;;;5081606;28;20309;-69
2022/02/19 09:47:25;;;;;;;4.03;1.40;;;18.40;37.90;;;;;;5070702;28;20209;-70
2022/02/19 09:49:53;;;;;;;2.37;1.40;;;16.90;39.60;;;;;;5077896;28;20204;-70
2022/02/19 09:52:20;;;;;;;4.87;1.10;;;15.70;41.00;;;;;;5067738;28;20278;-69
2022/02/19 09:54:47;;;;;;;3.93;1.03;;;14.80;42.60;;;;;;5073704;28;20241;-70
2022/02/19 09:57:15;;;;;;;5.40;1.13;;;14.10;44.50;;;;;;5068081;28;20205;-69
2022/02/19 09:59:42;;;;;;;2.40;1.00;;;13.40;46.90;;;;;;5068360;28;20205;-69
2022/02/19 10:02:09;;;;;;;2.77;1.13;;;14.80;47.20;;;;;;5064576;28;20654;-69
2022/02/19 10:04:36;;;;;;;5.30;1.00;;;14.70;44.30;;;;;;5070704;28;20399;-68
2022/02/19 10:07:16;;;;;;;4.67;1.00;;;14.20;44.90;;;;;;5070657;28;20232;-69
2022/02/19 10:09:44;;;;;;;2.60;0.90;;;14.20;48.80;;;;;;5073693;28;20234;-69
2022/02/19 10:12:12;;;;;;;3.20;1.17;;;14.40;45.40;;;;;;5073110;28;20296;-71
2022/02/19 10:14:40;;;;;;;2.60;1.10;;;14.20;45.70;;;;;;5074249;28;20205;-69
2022/02/19 10:17:17;;;;;;;2.87;1.13;;;14.20;46.50;;;;;;5073812;28;20615;-70
2022/02/19 10:19:52;;;;;;;3.20;1.33;;;14.50;50.20;;;;;;5075517;28;20232;-70
2022/02/19 10:22:23;;;;;;;2.03;0.90;;;15.00;48.40;;;;;;5065215;28;20664;-70
2022/02/19 10:24:53;;;;;;;2.37;1.10;;;16.60;45.30;;;;;;5072409;28;20254;-71
2022/02/19 10:27:21;;;;;;;4.87;0.97;;;16.70;43.10;;;;;;5067004;28;20762;-70
2022/02/19 10:29:55;;;;;;;4.67;1.60;;;16.10;42.70;;;;;;5067299;28;20693;-69
2022/02/19 10:32:23;;;;;;;6.93;0.83;;;15.20;43.60;;;;;;5080835;28;20283;-70
2022/02/19 10:35:06;;;;;;;3.40;1.07;;;14.20;44.80;;;;;;5076604;28;20606;-69
2022/02/19 10:37:44;;;;;;;3.93;1.00;;;13.30;46.40;;;;;;5066217;28;20228;-70
2022/02/19 10:40:34;;;;;;;4.17;0.87;;;12.40;47.80;;;;;;5078110;28;20235;-70
2022/02/19 10:43:04;;;;;;;3.60;1.30;;;11.60;49.10;;;;;;5069211;28;20228;-67
2022/02/19 10:45:32;;;;;;;1.93;0.97;;;11.10;50.60;;;;;;5084163;28;20293;-70
2022/02/19 10:48:13;;;;;;;2.20;1.10;;;11.30;52.60;;;;;;5077120;28;20196;-71
2022/02/19 10:50:40;;;;;;;5.90;1.00;;;12.70;54.30;;;;;;5071752;28;20207;-69
2022/02/19 10:53:09;;;;;;;3.20;1.10;;;13.30;48.70;;;;;;5075329;28;20552;-70
2022/02/19 10:55:37;;;;;;;3.67;1.30;;;13.10;48.30;;;;;;5083024;28;20291;-71
2022/02/19 10:58:06;;;;;;;9.03;1.30;;;12.70;48.70;;;;;;5073629;28;20212;-71
2022/02/19 11:00:36;;;;;;;5.73;1.20;;;12.40;49.80;;;;;;5075298;28;20205;-70
2022/02/19 11:03:04;;;;;;;2.67;0.90;;;12.10;50.00;;;;;;5079892;28;20208;-70
2022/02/19 11:05:32;;;;;;;3.13;0.93;;;11.70;50.60;;;;;;5078117;28;20272;-70
2022/02/19 11:08:00;;;;;;;2.73;0.97;;;11.30;51.40;;;;;;5080214;28;20257;-69
2022/02/19 11:10:30;;;;;;;2.20;1.00;;;11.00;52.00;;;;;;5083473;28;20291;-70
2022/02/19 11:12:57;;;;;;;1.60;1.13;;;10.60;52.50;;;;;;5088820;28;20787;-70
2022/02/19 11:15:25;;;;;;;3.13;1.07;;;10.60;54.00;;;;;;5089642;28;20744;-70
2022/02/19 11:17:53;;;;;;;1.63;1.00;;;10.50;53.30;;;;;;5085926;28;20234;-69
2022/02/19 11:20:22;;;;;;;4.33;0.87;;;10.40;53.50;;;;;;5087812;28;20275;-69
2022/02/19 11:22:50;;;;;;;2.63;1.13;;;10.40;53.80;;;;;;5089949;28;20230;-70
2022/02/19 11:25:19;;;;;;;1.77;1.00;;;10.30;54.10;;;;;;5090462;28;20208;-69
2022/02/19 11:27:54;;;;;;;3.00;1.40;;;10.10;54.20;;;;;;5080830;28;20221;-71
2022/02/19 11:30:23;;;;;;;2.57;0.97;;;10.00;54.70;;;;;;5077464;28;20748;-75
2022/02/19 11:32:53;;;;;;;3.73;1.37;;;10.00;55.10;;;;;;5088442;28;20212;-69
2022/02/19 11:35:32;;;;;;;1.40;0.83;;;10.40;59.20;;;;;;5080156;28;20198;-70
2022/02/19 11:37:59;;;;;;;1.97;1.10;;;11.70;54.00;;;;;;5081092;28;20261;-70
2022/02/19 11:40:26;;;;;;;3.13;1.40;;;11.70;52.30;;;;;;5079995;28;20225;-69
2022/02/19 11:42:55;;;;;;;2.60;1.00;;;11.50;52.70;;;;;;5077705;28;20205;-69
2022/02/19 11:45:25;;;;;;;4.83;1.23;;;11.20;53.20;;;;;;5076099;28;20220;-70
2022/02/19 11:47:55;;;;;;;3.00;0.80;;;10.70;53.60;;;;;;5075765;28;20213;-70
2022/02/19 11:50:27;;;;;;;5.20;1.10;;;10.40;54.20;;;;;;5077497;28;20743;-69
2022/02/19 11:53:22;;;;;;;1.20;1.07;;;10.00;55.10;;;;;;5076104;28;20207;-70
2022/02/19 11:55:50;;;;;;;2.97;0.90;;;9.70;56.80;;;;;;5061908;28;20202;-70
2022/02/19 11:58:24;;;;;;;3.00;0.77;;;9.40;57.60;;;;;;5076311;28;20205;-70
2022/02/19 12:00:54;;;;;;;2.37;0.80;;;9.20;58.40;;;;;;5077151;28;20293;-70
2022/02/19 12:03:24;;;;;;;2.37;1.03;;;9.00;59.00;;;;;;5075666;28;20209;-71
2022/02/19 12:06:15;;;;;;;2.27;0.90;;;8.90;60.10;;;;;;5076514;28;20276;-71
2022/02/19 12:09:18;;;;;;;2.60;1.10;;;8.70;60.10;;;;;;5073117;28;20300;-68
2022/02/19 12:12:12;;;;;;;2.33;0.93;;;8.70;60.80;;;;;;5073270;28;20197;-69
2022/02/19 12:15:01;;;;;;;3.77;1.30;;;8.60;60.80;;;;;;5075515;28;20197;-69
2022/02/19 12:17:54;;;;;;;2.40;0.93;;;8.60;61.00;;;;;;5069509;28;20227;-68
2022/02/19 12:20:40;;;;;;;3.83;1.20;;;8.50;61.30;;;;;;5067025;28;20683;-69
2022/02/19 12:23:10;;;;;;;4.47;1.00;;;8.50;61.80;;;;;;5082806;28;20288;-68
2022/02/19 12:26:03;;;;;;;1.27;0.60;;;8.60;62.00;;;;;;5078081;28;20197;-69
2022/02/19 12:28:30;;;;;;;1.37;0.97;;;8.40;62.40;;;;;;5081959;28;20293;-68
2022/02/19 12:31:16;;;;;;;3.27;1.00;;;8.50;62.50;;;;;;5069616;28;20347;-70
2022/02/19 12:33:45;;;;;;;1.67;0.80;;;8.60;62.50;;;;;;5074549;28;20209;-70
2022/02/19 12:36:12;;;;;;;2.17;0.93;;;8.60;62.40;;;;;;5072277;28;20205;-72
2022/02/19 12:38:45;;;;;;;2.07;1.10;;;8.70;62.40;;;;;;5073363;28;20205;-71
2022/02/19 12:41:13;;;;;;;2.40;1.00;;;8.60;62.60;;;;;;5078786;28;20651;-70
2022/02/19 12:43:39;;;;;;;5.87;1.20;;;8.60;62.70;;;;;;5079344;28;20204;-71
2022/02/19 12:46:07;;;;;;;1.70;1.00;;;8.60;63.10;;;;;;5062841;28;20221;-71
2022/02/19 12:48:35;;;;;;;2.20;0.87;;;8.60;63.50;;;;;;5084632;28;20209;-70
2022/02/19 12:51:02;;;;;;;2.27;1.00;;;8.50;63.90;;;;;;5069081;28;20230;-71
2022/02/19 12:53:29;;;;;;;3.07;1.40;;;8.50;64.00;;;;;;5071503;28;20236;-70
2022/02/19 12:55:57;;;;;;;4.40;1.00;;;8.50;64.40;;;;;;5075033;28;20297;-70
2022/02/19 12:58:25;;;;;;;1.50;1.00;;;8.50;64.70;;;;;;5078561;28;20279;-70
2022/02/19 13:00:52;;;;;;;4.20;1.10;;;8.40;64.60;;;;;;5077513;28;20266;-69
2022/02/19 13:03:20;;;;;;;6.47;1.00;;;8.40;64.50;;;;;;5076560;28;20578;-70
2022/02/19 13:05:55;;;;;;;2.53;0.93;;;8.80;65.80;;;;;;5085375;28;20665;-71
2022/02/19 13:08:22;;;;;;;2.60;1.00;;;9.10;63.70;;;;;;5071855;28;20861;-70
2022/02/19 13:10:51;;;;;;;2.40;0.97;;;9.40;63.30;;;;;;5074472;28;20198;-70